sensor_id;sensor_type;location;lat;lon;timestamp;P1;durP1;ratioP1;P2;durP2;ratioP2
71435;SDS011;59251;51.326;12.370;2023-11-21T00:02:24;8.98;;;2.60;;
71435;SDS011;59251;51.326;12.370;2023-11-21T00:04:52;11.52;;;2.88;;
71435;SDS011;59251;51.326;12.370;2023-11-21T00:07:20;6.33;;;2.27;;
71435;SDS011;59251;51.326;12.370;2023-11-21T00:09:47;7.32;;;2.00;;
71435;SDS011;59251;51.326;12.370;2023-11-21T00:12:14;8.48;;;2.30;;
71435;SDS011;59251;51.326;12.370;2023-11-21T00:14:41;7.05;;;2.25;;
71435;SDS011;59251;51.326;12.370;2023-11-21T00:17:08;9.98;;;2.67;;
71435;SDS011;59251;51.326;12.370;2023-11-21T00:19:34;7.93;;;2.20;;
71435;SDS011;59251;51.326;12.370;2023-11-21T00:22:01;8.02;;;2.33;;
71435;SDS011;59251;51.326;12.370;2023-11-21T00:24:30;10.15;;;2.33;;
71435;SDS011;59251;51.326;12.370;2023-11-21T00:26:57;7.03;;;2.15;;
71435;SDS011;59251;51.326;12.370;2023-11-21T00:29:24;6.90;;;1.70;;
71435;SDS011;59251;51.326;12.370;2023-11-21T00:31:51;9.17;;;1.77;;
71435;SDS011;59251;51.326;12.370;2023-11-21T00:34:18;8.32;;;1.85;;
71435;SDS011;59251;51.326;12.370;2023-11-21T00:36:45;8.63;;;1.83;;
71435;SDS011;59251;51.326;12.370;2023-11-21T00:39:12;7.32;;;1.73;;
71435;SDS011;59251;51.326;12.370;2023-11-21T00:41:40;8.45;;;1.80;;
71435;SDS011;59251;51.326;12.370;2023-11-21T00:44:07;7.63;;;2.10;;
71435;SDS011;59251;51.326;12.370;2023-11-21T00:46:34;7.32;;;2.35;;
71435;SDS011;59251;51.326;12.370;2023-11-21T00:49:00;7.82;;;1.60;;
71435;SDS011;59251;51.326;12.370;2023-11-21T00:51:29;8.90;;;1.90;;
71435;SDS011;59251;51.326;12.370;2023-11-21T00:53:56;7.22;;;1.88;;
71435;SDS011;59251;51.326;12.370;2023-11-21T00:56:23;8.33;;;1.60;;
71435;SDS011;59251;51.326;12.370;2023-11-21T00:58:51;7.72;;;1.83;;
71435;SDS011;59251;51.326;12.370;2023-11-21T01:01:19;8.48;;;2.10;;
71435;SDS011;59251;51.326;12.370;2023-11-21T01:03:45;6.40;;;1.75;;
71435;SDS011;59251;51.326;12.370;2023-11-21T01:06:12;6.63;;;1.60;;
71435;SDS011;59251;51.326;12.370;2023-11-21T01:08:40;6.50;;;1.77;;
71435;SDS011;59251;51.326;12.370;2023-11-21T01:11:09;5.60;;;1.25;;
71435;SDS011;59251;51.326;12.370;2023-11-21T01:13:37;5.95;;;1.75;;
71435;SDS011;59251;51.326;12.370;2023-11-21T01:16:06;5.65;;;1.45;;
71435;SDS011;59251;51.326;12.370;2023-11-21T01:18:33;6.97;;;1.60;;
71435;SDS011;59251;51.326;12.370;2023-11-21T01:21:01;7.00;;;1.77;;
71435;SDS011;59251;51.326;12.370;2023-11-21T01:23:27;5.10;;;1.23;;
71435;SDS011;59251;51.326;12.370;2023-11-21T01:25:55;7.50;;;1.80;;
71435;SDS011;59251;51.326;12.370;2023-11-21T01:28:22;7.18;;;1.48;;
71435;SDS011;59251;51.326;12.370;2023-11-21T01:30:49;11.40;;;1.75;;
71435;SDS011;59251;51.326;12.370;2023-11-21T01:33:17;7.00;;;1.33;;
71435;SDS011;59251;51.326;12.370;2023-11-21T01:35:45;7.82;;;1.52;;
71435;SDS011;59251;51.326;12.370;2023-11-21T01:38:12;8.48;;;1.65;;
71435;SDS011;59251;51.326;12.370;2023-11-21T01:40:39;7.28;;;1.33;;
71435;SDS011;59251;51.326;12.370;2023-11-21T01:43:06;5.20;;;1.27;;
71435;SDS011;59251;51.326;12.370;2023-11-21T01:45:33;7.77;;;1.10;;
71435;SDS011;59251;51.326;12.370;2023-11-21T01:48:00;8.15;;;1.88;;
71435;SDS011;59251;51.326;12.370;2023-11-21T01:50:29;8.55;;;1.38;;
71435;SDS011;59251;51.326;12.370;2023-11-21T01:52:56;7.30;;;1.70;;
71435;SDS011;59251;51.326;12.370;2023-11-21T01:55:24;6.22;;;1.25;;
71435;SDS011;59251;51.326;12.370;2023-11-21T01:57:52;6.00;;;1.40;;
71435;SDS011;59251;51.326;12.370;2023-11-21T02:00:20;6.22;;;1.40;;
71435;SDS011;59251;51.326;12.370;2023-11-21T02:02:48;7.20;;;1.48;;
71435;SDS011;59251;51.326;12.370;2023-11-21T02:05:15;6.47;;;1.27;;
71435;SDS011;59251;51.326;12.370;2023-11-21T02:07:45;8.27;;;1.33;;
71435;SDS011;59251;51.326;12.370;2023-11-21T02:10:13;5.07;;;1.17;;
71435;SDS011;59251;51.326;12.370;2023-11-21T02:12:40;7.55;;;1.55;;
71435;SDS011;59251;51.326;12.370;2023-11-21T02:15:08;6.97;;;1.35;;
71435;SDS011;59251;51.326;12.370;2023-11-21T02:17:40;6.40;;;1.30;;
71435;SDS011;59251;51.326;12.370;2023-11-21T02:20:09;5.20;;;1.00;;
71435;SDS011;59251;51.326;12.370;2023-11-21T02:22:41;8.20;;;1.10;;
71435;SDS011;59251;51.326;12.370;2023-11-21T02:25:10;5.82;;;1.15;;
71435;SDS011;59251;51.326;12.370;2023-11-21T02:27:37;6.78;;;1.23;;
71435;SDS011;59251;51.326;12.370;2023-11-21T02:30:04;7.35;;;1.40;;
71435;SDS011;59251;51.326;12.370;2023-11-21T02:32:33;5.40;;;1.30;;
71435;SDS011;59251;51.326;12.370;2023-11-21T02:34:59;6.93;;;1.50;;
71435;SDS011;59251;51.326;12.370;2023-11-21T02:37:32;8.07;;;1.35;;
71435;SDS011;59251;51.326;12.370;2023-11-21T02:40:00;6.03;;;1.35;;
71435;SDS011;59251;51.326;12.370;2023-11-21T02:42:30;9.43;;;1.50;;
71435;SDS011;59251;51.326;12.370;2023-11-21T02:44:57;6.15;;;1.50;;
71435;SDS011;59251;51.326;12.370;2023-11-21T02:47:23;6.97;;;1.47;;
71435;SDS011;59251;51.326;12.370;2023-11-21T02:49:50;7.53;;;1.60;;
71435;SDS011;59251;51.326;12.370;2023-11-21T02:52:17;7.55;;;1.38;;
71435;SDS011;59251;51.326;12.370;2023-11-21T02:54:44;7.80;;;1.52;;
71435;SDS011;59251;51.326;12.370;2023-11-21T02:57:11;9.93;;;1.50;;
71435;SDS011;59251;51.326;12.370;2023-11-21T02:59:40;8.80;;;1.70;;
71435;SDS011;59251;51.326;12.370;2023-11-21T03:02:06;7.80;;;1.65;;
71435;SDS011;59251;51.326;12.370;2023-11-21T03:04:34;7.38;;;1.70;;
71435;SDS011;59251;51.326;12.370;2023-11-21T03:07:01;12.23;;;1.77;;
71435;SDS011;59251;51.326;12.370;2023-11-21T03:09:27;6.43;;;1.88;;
71435;SDS011;59251;51.326;12.370;2023-11-21T03:11:54;10.07;;;2.03;;
71435;SDS011;59251;51.326;12.370;2023-11-21T03:14:21;10.48;;;2.00;;
71435;SDS011;59251;51.326;12.370;2023-11-21T03:16:49;9.93;;;1.88;;
71435;SDS011;59251;51.326;12.370;2023-11-21T03:19:16;8.40;;;1.90;;
71435;SDS011;59251;51.326;12.370;2023-11-21T03:21:42;6.57;;;1.55;;
71435;SDS011;59251;51.326;12.370;2023-11-21T03:24:09;8.33;;;1.57;;
71435;SDS011;59251;51.326;12.370;2023-11-21T03:26:36;9.60;;;2.60;;
71435;SDS011;59251;51.326;12.370;2023-11-21T03:29:03;8.32;;;2.05;;
71435;SDS011;59251;51.326;12.370;2023-11-21T03:31:30;7.65;;;1.80;;
71435;SDS011;59251;51.326;12.370;2023-11-21T03:33:59;8.20;;;2.10;;
71435;SDS011;59251;51.326;12.370;2023-11-21T03:36:25;7.20;;;1.83;;
71435;SDS011;59251;51.326;12.370;2023-11-21T03:38:52;8.68;;;2.25;;
71435;SDS011;59251;51.326;12.370;2023-11-21T03:41:20;9.23;;;2.20;;
71435;SDS011;59251;51.326;12.370;2023-11-21T03:43:47;9.57;;;2.30;;
71435;SDS011;59251;51.326;12.370;2023-11-21T03:46:13;9.20;;;2.03;;
71435;SDS011;59251;51.326;12.370;2023-11-21T03:48:41;10.87;;;2.30;;
71435;SDS011;59251;51.326;12.370;2023-11-21T03:51:09;6.50;;;1.85;;
71435;SDS011;59251;51.326;12.370;2023-11-21T03:53:36;5.72;;;1.95;;
71435;SDS011;59251;51.326;12.370;2023-11-21T03:56:03;8.75;;;1.98;;
71435;SDS011;59251;51.326;12.370;2023-11-21T03:58:32;6.93;;;1.77;;
71435;SDS011;59251;51.326;12.370;2023-11-21T04:00:59;8.40;;;2.30;;
71435;SDS011;59251;51.326;12.370;2023-11-21T04:03:26;7.65;;;2.10;;
71435;SDS011;59251;51.326;12.370;2023-11-21T04:05:53;8.60;;;2.25;;
71435;SDS011;59251;51.326;12.370;2023-11-21T04:08:21;9.63;;;2.20;;
71435;SDS011;59251;51.326;12.370;2023-11-21T04:10:48;8.70;;;2.00;;
71435;SDS011;59251;51.326;12.370;2023-11-21T04:13:14;11.10;;;2.40;;
71435;SDS011;59251;51.326;12.370;2023-11-21T04:15:41;8.60;;;2.00;;
71435;SDS011;59251;51.326;12.370;2023-11-21T04:18:08;9.90;;;2.40;;
71435;SDS011;59251;51.326;12.370;2023-11-21T04:20:35;10.35;;;2.10;;
71435;SDS011;59251;51.326;12.370;2023-11-21T04:23:02;10.55;;;2.33;;
71435;SDS011;59251;51.326;12.370;2023-11-21T04:25:30;8.43;;;2.60;;
71435;SDS011;59251;51.326;12.370;2023-11-21T04:27:57;7.25;;;1.83;;
71435;SDS011;59251;51.326;12.370;2023-11-21T04:30:23;8.90;;;2.08;;
71435;SDS011;59251;51.326;12.370;2023-11-21T04:32:50;7.63;;;2.05;;
71435;SDS011;59251;51.326;12.370;2023-11-21T04:35:17;10.77;;;2.55;;
71435;SDS011;59251;51.326;12.370;2023-11-21T04:37:43;7.30;;;2.30;;
71435;SDS011;59251;51.326;12.370;2023-11-21T04:40:10;10.07;;;2.10;;
71435;SDS011;59251;51.326;12.370;2023-11-21T04:42:39;8.70;;;2.40;;
71435;SDS011;59251;51.326;12.370;2023-11-21T04:45:06;13.07;;;2.60;;
71435;SDS011;59251;51.326;12.370;2023-11-21T04:47:36;8.32;;;2.03;;
71435;SDS011;59251;51.326;12.370;2023-11-21T04:50:03;11.13;;;2.20;;
71435;SDS011;59251;51.326;12.370;2023-11-21T04:52:32;10.18;;;2.30;;
71435;SDS011;59251;51.326;12.370;2023-11-21T04:54:59;8.07;;;2.13;;
71435;SDS011;59251;51.326;12.370;2023-11-21T04:57:26;9.13;;;2.30;;
71435;SDS011;59251;51.326;12.370;2023-11-21T04:59:55;9.18;;;2.40;;
71435;SDS011;59251;51.326;12.370;2023-11-21T05:02:21;8.50;;;2.20;;
71435;SDS011;59251;51.326;12.370;2023-11-21T05:04:48;8.98;;;2.70;;
71435;SDS011;59251;51.326;12.370;2023-11-21T05:07:15;8.88;;;2.65;;
71435;SDS011;59251;51.326;12.370;2023-11-21T05:09:42;9.25;;;2.92;;
71435;SDS011;59251;51.326;12.370;2023-11-21T05:12:11;8.60;;;2.83;;
71435;SDS011;59251;51.326;12.370;2023-11-21T05:14:38;8.67;;;2.70;;
71435;SDS011;59251;51.326;12.370;2023-11-21T05:17:06;10.73;;;2.50;;
71435;SDS011;59251;51.326;12.370;2023-11-21T05:19:33;9.13;;;2.53;;
71435;SDS011;59251;51.326;12.370;2023-11-21T05:22:01;9.20;;;2.25;;
71435;SDS011;59251;51.326;12.370;2023-11-21T05:24:27;10.68;;;2.92;;
71435;SDS011;59251;51.326;12.370;2023-11-21T05:26:54;13.00;;;4.10;;
71435;SDS011;59251;51.326;12.370;2023-11-21T05:29:21;10.57;;;2.95;;
71435;SDS011;59251;51.326;12.370;2023-11-21T05:31:48;9.82;;;3.10;;
71435;SDS011;59251;51.326;12.370;2023-11-21T05:34:16;12.15;;;3.13;;
71435;SDS011;59251;51.326;12.370;2023-11-21T05:36:43;12.35;;;4.03;;
71435;SDS011;59251;51.326;12.370;2023-11-21T05:39:10;14.57;;;4.33;;
71435;SDS011;59251;51.326;12.370;2023-11-21T05:41:37;9.48;;;3.30;;
71435;SDS011;59251;51.326;12.370;2023-11-21T05:44:04;10.38;;;3.60;;
71435;SDS011;59251;51.326;12.370;2023-11-21T05:46:31;13.70;;;3.38;;
71435;SDS011;59251;51.326;12.370;2023-11-21T05:48:58;10.43;;;3.03;;
71435;SDS011;59251;51.326;12.370;2023-11-21T05:51:26;12.37;;;3.70;;
71435;SDS011;59251;51.326;12.370;2023-11-21T05:53:52;10.93;;;3.03;;
71435;SDS011;59251;51.326;12.370;2023-11-21T05:56:19;12.48;;;3.45;;
71435;SDS011;59251;51.326;12.370;2023-11-21T05:58:46;11.77;;;3.13;;
71435;SDS011;59251;51.326;12.370;2023-11-21T06:01:13;16.95;;;3.95;;
71435;SDS011;59251;51.326;12.370;2023-11-21T06:03:40;11.13;;;3.67;;
71435;SDS011;59251;51.326;12.370;2023-11-21T06:06:06;13.93;;;4.15;;
71435;SDS011;59251;51.326;12.370;2023-11-21T06:08:35;12.70;;;3.80;;
71435;SDS011;59251;51.326;12.370;2023-11-21T06:11:02;13.20;;;3.90;;
71435;SDS011;59251;51.326;12.370;2023-11-21T06:13:29;11.30;;;3.50;;
71435;SDS011;59251;51.326;12.370;2023-11-21T06:15:56;14.13;;;3.77;;
71435;SDS011;59251;51.326;12.370;2023-11-21T06:18:22;11.20;;;3.30;;
71435;SDS011;59251;51.326;12.370;2023-11-21T06:20:49;14.02;;;3.60;;
71435;SDS011;59251;51.326;12.370;2023-11-21T06:23:18;10.77;;;3.67;;
71435;SDS011;59251;51.326;12.370;2023-11-21T06:25:46;13.00;;;3.80;;
71435;SDS011;59251;51.326;12.370;2023-11-21T06:28:12;13.63;;;3.90;;
71435;SDS011;59251;51.326;12.370;2023-11-21T06:30:42;15.15;;;3.95;;
71435;SDS011;59251;51.326;12.370;2023-11-21T06:33:09;14.13;;;4.03;;
71435;SDS011;59251;51.326;12.370;2023-11-21T06:35:36;15.32;;;4.00;;
71435;SDS011;59251;51.326;12.370;2023-11-21T06:38:03;14.05;;;3.97;;
71435;SDS011;59251;51.326;12.370;2023-11-21T06:40:29;14.80;;;4.07;;
71435;SDS011;59251;51.326;12.370;2023-11-21T06:43:00;14.60;;;4.90;;
71435;SDS011;59251;51.326;12.370;2023-11-21T06:45:26;15.75;;;4.57;;
71435;SDS011;59251;51.326;12.370;2023-11-21T06:47:53;13.93;;;4.65;;
71435;SDS011;59251;51.326;12.370;2023-11-21T06:50:20;18.25;;;4.78;;
71435;SDS011;59251;51.326;12.370;2023-11-21T06:52:47;12.40;;;4.40;;
71435;SDS011;59251;51.326;12.370;2023-11-21T06:55:13;18.73;;;4.43;;
71435;SDS011;59251;51.326;12.370;2023-11-21T06:57:41;13.73;;;5.03;;
71435;SDS011;59251;51.326;12.370;2023-11-21T07:00:10;15.07;;;5.03;;
71435;SDS011;59251;51.326;12.370;2023-11-21T07:02:37;17.00;;;5.65;;
71435;SDS011;59251;51.326;12.370;2023-11-21T07:05:04;17.73;;;5.27;;
71435;SDS011;59251;51.326;12.370;2023-11-21T07:07:31;19.38;;;5.10;;
71435;SDS011;59251;51.326;12.370;2023-11-21T07:10:00;16.38;;;5.40;;
71435;SDS011;59251;51.326;12.370;2023-11-21T07:12:28;19.50;;;5.80;;
71435;SDS011;59251;51.326;12.370;2023-11-21T07:14:56;18.35;;;5.80;;
71435;SDS011;59251;51.326;12.370;2023-11-21T07:17:24;21.70;;;6.93;;
71435;SDS011;59251;51.326;12.370;2023-11-21T07:19:51;17.80;;;5.90;;
71435;SDS011;59251;51.326;12.370;2023-11-21T07:22:17;19.02;;;5.82;;
71435;SDS011;59251;51.326;12.370;2023-11-21T07:24:48;20.83;;;5.75;;
71435;SDS011;59251;51.326;12.370;2023-11-21T07:27:16;15.98;;;6.05;;
71435;SDS011;59251;51.326;12.370;2023-11-21T07:29:43;12.63;;;5.07;;
71435;SDS011;59251;51.326;12.370;2023-11-21T07:32:09;17.85;;;5.97;;
71435;SDS011;59251;51.326;12.370;2023-11-21T07:34:37;17.00;;;5.68;;
71435;SDS011;59251;51.326;12.370;2023-11-21T07:37:04;20.65;;;7.75;;
71435;SDS011;59251;51.326;12.370;2023-11-21T07:39:31;23.90;;;8.02;;
71435;SDS011;59251;51.326;12.370;2023-11-21T07:41:57;23.73;;;8.00;;
71435;SDS011;59251;51.326;12.370;2023-11-21T07:44:24;27.05;;;9.68;;
71435;SDS011;59251;51.326;12.370;2023-11-21T07:46:51;27.77;;;9.68;;
71435;SDS011;59251;51.326;12.370;2023-11-21T07:49:22;31.30;;;9.90;;
71435;SDS011;59251;51.326;12.370;2023-11-21T07:51:50;30.33;;;10.05;;
71435;SDS011;59251;51.326;12.370;2023-11-21T07:54:17;28.23;;;10.70;;
71435;SDS011;59251;51.326;12.370;2023-11-21T07:56:43;30.00;;;11.02;;
71435;SDS011;59251;51.326;12.370;2023-11-21T07:59:10;33.72;;;11.75;;
71435;SDS011;59251;51.326;12.370;2023-11-21T08:01:37;30.50;;;11.18;;
71435;SDS011;59251;51.326;12.370;2023-11-21T08:04:05;24.60;;;9.02;;
71435;SDS011;59251;51.326;12.370;2023-11-21T08:06:33;30.17;;;10.77;;
71435;SDS011;59251;51.326;12.370;2023-11-21T08:09:01;27.42;;;9.70;;
71435;SDS011;59251;51.326;12.370;2023-11-21T08:11:28;23.35;;;9.35;;
71435;SDS011;59251;51.326;12.370;2023-11-21T08:13:57;24.20;;;8.45;;
71435;SDS011;59251;51.326;12.370;2023-11-21T08:16:24;21.40;;;8.77;;
71435;SDS011;59251;51.326;12.370;2023-11-21T08:18:51;22.70;;;7.80;;
71435;SDS011;59251;51.326;12.370;2023-11-21T08:21:17;20.40;;;7.78;;
71435;SDS011;59251;51.326;12.370;2023-11-21T08:23:45;16.95;;;6.70;;
71435;SDS011;59251;51.326;12.370;2023-11-21T08:26:15;15.93;;;6.45;;
71435;SDS011;59251;51.326;12.370;2023-11-21T08:28:42;15.15;;;6.53;;
71435;SDS011;59251;51.326;12.370;2023-11-21T08:31:09;18.90;;;6.57;;
71435;SDS011;59251;51.326;12.370;2023-11-21T08:33:35;15.52;;;5.72;;
71435;SDS011;59251;51.326;12.370;2023-11-21T08:36:06;16.45;;;6.15;;
71435;SDS011;59251;51.326;12.370;2023-11-21T08:38:33;18.17;;;6.38;;
71435;SDS011;59251;51.326;12.370;2023-11-21T08:41:01;18.27;;;6.05;;
71435;SDS011;59251;51.326;12.370;2023-11-21T08:43:29;14.80;;;5.80;;
71435;SDS011;59251;51.326;12.370;2023-11-21T08:45:55;13.75;;;6.00;;
71435;SDS011;59251;51.326;12.370;2023-11-21T08:48:22;16.85;;;5.88;;
71435;SDS011;59251;51.326;12.370;2023-11-21T08:50:49;16.83;;;5.80;;
71435;SDS011;59251;51.326;12.370;2023-11-21T08:53:16;16.90;;;5.45;;
71435;SDS011;59251;51.326;12.370;2023-11-21T08:55:42;15.13;;;5.47;;
71435;SDS011;59251;51.326;12.370;2023-11-21T08:58:09;14.15;;;4.93;;
71435;SDS011;59251;51.326;12.370;2023-11-21T09:00:38;14.90;;;5.15;;
71435;SDS011;59251;51.326;12.370;2023-11-21T09:03:06;12.98;;;5.13;;
71435;SDS011;59251;51.326;12.370;2023-11-21T09:05:33;14.43;;;5.60;;
71435;SDS011;59251;51.326;12.370;2023-11-21T09:08:04;14.73;;;5.00;;
71435;SDS011;59251;51.326;12.370;2023-11-21T09:10:31;13.93;;;5.07;;
71435;SDS011;59251;51.326;12.370;2023-11-21T09:12:57;13.30;;;5.00;;
71435;SDS011;59251;51.326;12.370;2023-11-21T09:15:24;13.73;;;5.22;;
71435;SDS011;59251;51.326;12.370;2023-11-21T09:17:52;14.05;;;5.40;;
71435;SDS011;59251;51.326;12.370;2023-11-21T09:20:19;13.77;;;5.20;;
71435;SDS011;59251;51.326;12.370;2023-11-21T09:22:48;12.55;;;4.97;;
71435;SDS011;59251;51.326;12.370;2023-11-21T09:25:15;14.90;;;5.57;;
71435;SDS011;59251;51.326;12.370;2023-11-21T09:27:42;12.38;;;5.18;;
71435;SDS011;59251;51.326;12.370;2023-11-21T09:30:10;12.38;;;5.18;;
71435;SDS011;59251;51.326;12.370;2023-11-21T09:32:39;14.07;;;5.00;;
71435;SDS011;59251;51.326;12.370;2023-11-21T09:35:08;11.32;;;4.95;;
71435;SDS011;59251;51.326;12.370;2023-11-21T09:37:35;14.45;;;4.70;;
71435;SDS011;59251;51.326;12.370;2023-11-21T09:40:03;13.00;;;4.95;;
71435;SDS011;59251;51.326;12.370;2023-11-21T09:42:32;12.55;;;5.13;;
71435;SDS011;59251;51.326;12.370;2023-11-21T09:45:03;13.33;;;5.60;;
71435;SDS011;59251;51.326;12.370;2023-11-21T09:47:35;12.65;;;4.50;;
71435;SDS011;59251;51.326;12.370;2023-11-21T09:50:05;13.52;;;5.20;;
71435;SDS011;59251;51.326;12.370;2023-11-21T09:52:37;13.45;;;5.40;;
71435;SDS011;59251;51.326;12.370;2023-11-21T09:55:10;13.50;;;5.15;;
71435;SDS011;59251;51.326;12.370;2023-11-21T09:57:40;12.43;;;5.17;;
71435;SDS011;59251;51.326;12.370;2023-11-21T10:00:08;12.77;;;4.90;;
71435;SDS011;59251;51.326;12.370;2023-11-21T10:02:37;14.02;;;5.82;;
71435;SDS011;59251;51.326;12.370;2023-11-21T10:05:06;13.77;;;5.38;;
71435;SDS011;59251;51.326;12.370;2023-11-21T10:07:36;13.65;;;5.00;;
71435;SDS011;59251;51.326;12.370;2023-11-21T10:10:04;10.13;;;4.43;;
71435;SDS011;59251;51.326;12.370;2023-11-21T10:12:31;15.00;;;4.43;;
71435;SDS011;59251;51.326;12.370;2023-11-21T10:14:58;11.05;;;4.10;;
71435;SDS011;59251;51.326;12.370;2023-11-21T10:17:26;10.68;;;3.95;;
71435;SDS011;59251;51.326;12.370;2023-11-21T10:19:56;11.02;;;4.68;;
71435;SDS011;59251;51.326;12.370;2023-11-21T10:22:23;9.37;;;3.13;;
71435;SDS011;59251;51.326;12.370;2023-11-21T10:24:52;9.63;;;2.85;;
71435;SDS011;59251;51.326;12.370;2023-11-21T10:27:18;10.98;;;3.53;;
71435;SDS011;59251;51.326;12.370;2023-11-21T10:29:45;10.20;;;3.08;;
71435;SDS011;59251;51.326;12.370;2023-11-21T10:32:12;11.40;;;3.53;;
71435;SDS011;59251;51.326;12.370;2023-11-21T10:34:38;11.00;;;3.67;;
71435;SDS011;59251;51.326;12.370;2023-11-21T10:37:12;10.77;;;3.83;;
71435;SDS011;59251;51.326;12.370;2023-11-21T10:39:40;11.75;;;3.67;;
71435;SDS011;59251;51.326;12.370;2023-11-21T10:42:10;10.45;;;3.65;;
71435;SDS011;59251;51.326;12.370;2023-11-21T10:44:37;9.98;;;3.55;;
71435;SDS011;59251;51.326;12.370;2023-11-21T10:47:04;9.77;;;3.63;;
71435;SDS011;59251;51.326;12.370;2023-11-21T10:49:30;9.20;;;4.03;;
71435;SDS011;59251;51.326;12.370;2023-11-21T10:51:57;9.75;;;3.40;;
71435;SDS011;59251;51.326;12.370;2023-11-21T10:54:24;8.55;;;2.83;;
71435;SDS011;59251;51.326;12.370;2023-11-21T10:56:53;9.77;;;3.00;;
71435;SDS011;59251;51.326;12.370;2023-11-21T10:59:24;8.83;;;3.20;;
71435;SDS011;59251;51.326;12.370;2023-11-21T11:01:54;9.55;;;3.10;;
71435;SDS011;59251;51.326;12.370;2023-11-21T11:04:27;12.35;;;4.43;;
71435;SDS011;59251;51.326;12.370;2023-11-21T11:06:54;10.73;;;3.40;;
71435;SDS011;59251;51.326;12.370;2023-11-21T11:09:23;8.70;;;2.90;;
71435;SDS011;59251;51.326;12.370;2023-11-21T11:11:50;10.00;;;3.23;;
71435;SDS011;59251;51.326;12.370;2023-11-21T11:14:18;10.95;;;3.47;;
71435;SDS011;59251;51.326;12.370;2023-11-21T11:16:46;11.82;;;3.72;;
71435;SDS011;59251;51.326;12.370;2023-11-21T11:19:15;13.13;;;4.40;;
71435;SDS011;59251;51.326;12.370;2023-11-21T11:21:47;12.88;;;4.97;;
71435;SDS011;59251;51.326;12.370;2023-11-21T11:24:33;13.20;;;4.87;;
71435;SDS011;59251;51.326;12.370;2023-11-21T11:27:12;13.75;;;4.53;;
71435;SDS011;59251;51.326;12.370;2023-11-21T11:29:49;13.18;;;4.72;;
71435;SDS011;59251;51.326;12.370;2023-11-21T11:32:32;11.60;;;4.35;;
71435;SDS011;59251;51.326;12.370;2023-11-21T11:35:10;13.90;;;4.95;;
71435;SDS011;59251;51.326;12.370;2023-11-21T11:37:43;12.00;;;4.80;;
71435;SDS011;59251;51.326;12.370;2023-11-21T11:40:11;12.85;;;4.57;;
71435;SDS011;59251;51.326;12.370;2023-11-21T11:42:38;13.90;;;5.32;;
71435;SDS011;59251;51.326;12.370;2023-11-21T11:45:17;13.68;;;4.75;;
71435;SDS011;59251;51.326;12.370;2023-11-21T11:47:46;11.82;;;4.35;;
71435;SDS011;59251;51.326;12.370;2023-11-21T11:50:14;16.23;;;5.43;;
71435;SDS011;59251;51.326;12.370;2023-11-21T11:52:42;13.65;;;5.38;;
71435;SDS011;59251;51.326;12.370;2023-11-21T11:55:10;24.60;;;9.20;;
71435;SDS011;59251;51.326;12.370;2023-11-21T11:57:38;23.80;;;8.27;;
71435;SDS011;59251;51.326;12.370;2023-11-21T12:00:09;28.35;;;8.10;;
71435;SDS011;59251;51.326;12.370;2023-11-21T12:02:41;20.67;;;8.60;;
71435;SDS011;59251;51.326;12.370;2023-11-21T12:05:12;17.63;;;6.82;;
71435;SDS011;59251;51.326;12.370;2023-11-21T12:07:47;17.45;;;6.90;;
71435;SDS011;59251;51.326;12.370;2023-11-21T12:10:18;16.73;;;5.35;;
71435;SDS011;59251;51.326;12.370;2023-11-21T12:12:48;16.17;;;6.03;;
71435;SDS011;59251;51.326;12.370;2023-11-21T12:15:16;17.27;;;7.07;;
71435;SDS011;59251;51.326;12.370;2023-11-21T12:17:43;14.93;;;5.03;;
71435;SDS011;59251;51.326;12.370;2023-11-21T12:20:12;14.93;;;4.97;;
71435;SDS011;59251;51.326;12.370;2023-11-21T12:22:43;11.52;;;4.40;;
71435;SDS011;59251;51.326;12.370;2023-11-21T12:25:13;10.30;;;3.30;;
71435;SDS011;59251;51.326;12.370;2023-11-21T12:27:42;12.73;;;3.17;;
71435;SDS011;59251;51.326;12.370;2023-11-21T12:30:11;9.93;;;3.28;;
71435;SDS011;59251;51.326;12.370;2023-11-21T12:32:40;13.68;;;3.63;;
71435;SDS011;59251;51.326;12.370;2023-11-21T12:35:08;11.82;;;3.90;;
71435;SDS011;59251;51.326;12.370;2023-11-21T12:37:37;11.98;;;3.90;;
71435;SDS011;59251;51.326;12.370;2023-11-21T12:40:06;9.13;;;2.90;;
71435;SDS011;59251;51.326;12.370;2023-11-21T12:42:36;11.18;;;3.67;;
71435;SDS011;59251;51.326;12.370;2023-11-21T12:45:10;10.07;;;3.20;;
71435;SDS011;59251;51.326;12.370;2023-11-21T12:47:46;10.68;;;3.10;;
71435;SDS011;59251;51.326;12.370;2023-11-21T12:50:14;12.80;;;3.40;;
71435;SDS011;59251;51.326;12.370;2023-11-21T12:52:43;12.60;;;4.07;;
71435;SDS011;59251;51.326;12.370;2023-11-21T12:55:13;13.07;;;4.32;;
71435;SDS011;59251;51.326;12.370;2023-11-21T12:57:44;15.57;;;5.72;;
71435;SDS011;59251;51.326;12.370;2023-11-21T13:00:12;17.65;;;5.65;;
71435;SDS011;59251;51.326;12.370;2023-11-21T13:02:52;15.27;;;5.15;;
71435;SDS011;59251;51.326;12.370;2023-11-21T13:05:25;13.50;;;4.90;;
71435;SDS011;59251;51.326;12.370;2023-11-21T13:07:55;17.50;;;5.85;;
71435;SDS011;59251;51.326;12.370;2023-11-21T13:10:23;17.70;;;6.20;;
71435;SDS011;59251;51.326;12.370;2023-11-21T13:12:54;18.75;;;6.47;;
71435;SDS011;59251;51.326;12.370;2023-11-21T13:15:23;18.27;;;6.30;;
71435;SDS011;59251;51.326;12.370;2023-11-21T13:17:50;17.23;;;5.57;;
71435;SDS011;59251;51.326;12.370;2023-11-21T13:20:18;16.25;;;6.72;;
71435;SDS011;59251;51.326;12.370;2023-11-21T13:22:47;16.50;;;6.53;;
71435;SDS011;59251;51.326;12.370;2023-11-21T13:25:16;16.75;;;6.30;;
71435;SDS011;59251;51.326;12.370;2023-11-21T13:27:45;16.35;;;5.85;;
71435;SDS011;59251;51.326;12.370;2023-11-21T13:30:12;17.73;;;6.17;;
71435;SDS011;59251;51.326;12.370;2023-11-21T13:32:43;14.60;;;5.80;;
71435;SDS011;59251;51.326;12.370;2023-11-21T13:35:11;13.80;;;5.20;;
71435;SDS011;59251;51.326;12.370;2023-11-21T13:37:49;14.05;;;5.65;;
71435;SDS011;59251;51.326;12.370;2023-11-21T13:40:22;12.55;;;4.85;;
71435;SDS011;59251;51.326;12.370;2023-11-21T13:42:52;13.37;;;5.17;;
71435;SDS011;59251;51.326;12.370;2023-11-21T13:45:23;15.07;;;5.35;;
71435;SDS011;59251;51.326;12.370;2023-11-21T13:47:50;12.27;;;5.22;;
71435;SDS011;59251;51.326;12.370;2023-11-21T13:50:20;15.05;;;5.03;;
71435;SDS011;59251;51.326;12.370;2023-11-21T13:52:51;16.42;;;5.88;;
71435;SDS011;59251;51.326;12.370;2023-11-21T13:55:19;15.63;;;5.77;;
71435;SDS011;59251;51.326;12.370;2023-11-21T13:57:50;14.02;;;4.40;;
71435;SDS011;59251;51.326;12.370;2023-11-21T14:00:18;13.65;;;5.57;;
71435;SDS011;59251;51.326;12.370;2023-11-21T14:03:09;13.02;;;4.30;;
71435;SDS011;59251;51.326;12.370;2023-11-21T14:05:44;15.38;;;5.47;;
71435;SDS011;59251;51.326;12.370;2023-11-21T14:08:12;14.90;;;4.53;;
71435;SDS011;59251;51.326;12.370;2023-11-21T14:10:42;13.30;;;5.07;;
71435;SDS011;59251;51.326;12.370;2023-11-21T14:13:11;12.15;;;4.18;;
71435;SDS011;59251;51.326;12.370;2023-11-21T14:15:39;10.48;;;3.45;;
71435;SDS011;59251;51.326;12.370;2023-11-21T14:18:10;10.65;;;4.13;;
71435;SDS011;59251;51.326;12.370;2023-11-21T14:20:39;9.90;;;3.00;;
71435;SDS011;59251;51.326;12.370;2023-11-21T14:23:07;11.55;;;3.30;;
71435;SDS011;59251;51.326;12.370;2023-11-21T14:25:33;10.85;;;3.20;;
71435;SDS011;59251;51.326;12.370;2023-11-21T14:28:02;10.27;;;3.58;;
71435;SDS011;59251;51.326;12.370;2023-11-21T14:30:31;10.75;;;3.75;;
71435;SDS011;59251;51.326;12.370;2023-11-21T14:33:00;10.10;;;3.73;;